Forside
METAR-TAF:

METAR-TAF

Lufthavne :

Kullu / Manali, Indien

Breddekreds: 31-52-36N, længdekreds: 77-09-16E, højde: 1089 m

Aktuelle vejr

Denne rapport blev lavet for 8 timer og 9 minutter siden, kl. 09:00 UTC
Vind stille
Temperatur 19°C
Fugtighed 30%
Tryk 1013 hPa
Sigt: 7000 m
Spredte skyer i en højde af 3000 ft

METAR: VIBR 230900Z 00000KT 7000 SCT030 19/01 Q1013

Tid: 22:39 (17:09 UTC)

Vejrudsigter

Denne rapport blev lavet for 12 timer og 9 minutter siden, kl. 05:00 UTC
Foreløbig gælder fra 23 på 06 UTC til 23 på 15 UTC
Vind kt fra nord
Sigt: 5000 m
Nogle få skyer i en højde af 3000 ft
tåge/dis
ændring
fra 23 på 12 UTC til 23 på 15 UTC
Sigt: 1500 m
Nogle få skyer i en højde af 3500 ft, Cumulonimbus.
Overskyet i en højde af 6000 ft

TAF: VIBR 230500Z 2306/2315 00000KT 5000 HZ FEW030 BECMG 2312/2315 1500 -TSRA/SN FEW035CB OVC060

Vejrobservationer og prognoser fra mere end 4000 lufthavne (METAR og TAF).

De gule og røde prikker repræsenterer de meteorologiske stationer.

Flyt musen over at se navnet på stationen.

Så klik over at se vejr observationer og prognoser.

At skifte det kort: Klik på de grønne knapper med et sort kors for at zoome ind; på den grønne knap med en bindestreg for at zoome ud; eller på de grønne pile for tilstødende kort.


METAR-TAF: